Time;durP1;ratioP1;P1;durP2;ratioP2;P2;SDS_P1;SDS_P2;PMS_P1;PMS_P2;Temp;Humidity;BMP_temperature;BMP_pressure;BME280_temperature;BME280_humidity;BME280_pressure;Samples;Min_cycle;Max_cycle;Signal;HPM_P1;HPM_P2
2021/10/24 00:01:27;;;;;;;0.00;0.00;;;;;;;6.21;66.63;101293.72;5083575;28;20132;-68
2021/10/24 00:03:54;;;;;;;0.52;0.52;;;;;;;6.23;66.59;101293.63;5084762;28;20055;-68
2021/10/24 00:06:21;;;;;;;0.00;0.00;;;;;;;6.23;66.88;101294.50;5083748;28;20070;-67
2021/10/24 00:08:48;;;;;;;0.73;0.73;;;;;;;6.21;66.63;101295.47;5083114;28;20055;-71
2021/10/24 00:11:16;;;;;;;0.28;0.28;;;;;;;6.19;66.64;101303.38;5084170;28;20063;-68
2021/10/24 00:13:43;;;;;;;0.10;0.10;;;;;;;6.17;66.63;101299.97;5082697;28;20048;-67
2021/10/24 00:16:10;;;;;;;0.05;0.05;;;;;;;6.15;66.57;101307.03;5086467;28;20044;-72
2021/10/24 00:18:37;;;;;;;0.10;0.10;;;;;;;6.14;66.60;101305.34;5092101;28;20471;-69
2021/10/24 00:21:04;;;;;;;0.10;0.10;;;;;;;6.12;66.51;101310.66;5087093;28;20193;-68
2021/10/24 00:23:31;;;;;;;0.10;0.10;;;;;;;6.13;66.51;101317.59;5086752;28;20454;-68
2021/10/24 00:25:58;;;;;;;0.45;0.45;;;;;;;6.13;66.25;101322.00;5086313;28;20115;-67
2021/10/24 00:28:26;;;;;;;0.00;0.00;;;;;;;6.10;66.54;101314.22;5086305;28;20048;-68
2021/10/24 00:30:54;;;;;;;0.00;0.00;;;;;;;6.07;66.54;101311.72;5085721;28;20059;-67
2021/10/24 00:33:22;;;;;;;0.00;0.00;;;;;;;6.05;66.33;101318.78;5086803;28;20048;-70
2021/10/24 00:35:49;;;;;;;0.10;0.10;;;;;;;6.07;66.38;101324.84;5086130;28;20059;-70
2021/10/24 00:38:16;;;;;;;0.00;0.00;;;;;;;6.04;66.46;101327.56;5085871;28;20056;-69
2021/10/24 00:40:44;;;;;;;0.03;0.03;;;;;;;6.01;66.22;101328.53;5087085;28;20048;-68
2021/10/24 00:43:11;;;;;;;0.70;0.57;;;;;;;6.00;66.39;101337.31;5085763;28;20410;-69
2021/10/24 00:45:39;;;;;;;0.10;0.10;;;;;;;5.97;66.32;101333.94;5084542;28;20056;-69
2021/10/24 00:48:06;;;;;;;0.68;0.68;;;;;;;5.95;66.49;101331.34;5087207;28;20059;-68
2021/10/24 00:50:35;;;;;;;0.10;0.10;;;;;;;5.93;66.38;101326.16;5086655;28;20111;-67
2021/10/24 00:53:03;;;;;;;1.95;1.23;;;;;;;5.92;66.35;101328.81;5087204;28;20061;-68
2021/10/24 00:55:29;;;;;;;0.00;0.00;;;;;;;5.91;66.41;101333.22;5085955;28;20055;-68
2021/10/24 00:57:57;;;;;;;0.10;0.10;;;;;;;5.89;66.34;101334.19;5087157;28;20142;-69
2021/10/24 01:00:27;;;;;;;0.00;0.00;;;;;;;5.86;66.27;101334.31;5086782;28;20044;-68
2021/10/24 01:02:55;;;;;;;0.00;0.00;;;;;;;5.84;66.41;101334.34;5087603;28;20056;-68
2021/10/24 01:05:22;;;;;;;0.00;0.00;;;;;;;5.83;66.22;101332.63;5087161;28;20499;-69
2021/10/24 01:07:50;;;;;;;0.10;0.10;;;;;;;5.83;66.06;101332.63;5087355;28;20697;-68
2021/10/24 01:10:18;;;;;;;0.10;0.10;;;;;;;5.79;65.99;101328.41;5086978;28;20052;-68
2021/10/24 01:12:47;;;;;;;0.10;0.10;;;;;;;5.77;66.10;101334.63;5087156;28;20047;-68
2021/10/24 01:15:14;;;;;;;0.00;0.00;;;;;;;5.74;66.14;101335.56;5086396;28;20044;-68
2021/10/24 01:17:42;;;;;;;0.10;0.10;;;;;;;5.68;65.93;101341.03;5088052;28;20054;-70
2021/10/24 01:20:16;;;;;;;0.00;0.00;;;;;;;5.65;66.03;101339.38;5087069;28;20040;-68
2021/10/24 01:22:44;;;;;;;0.10;0.10;;;;;;;5.64;66.12;101342.06;5088515;28;20050;-69
2021/10/24 01:25:11;;;;;;;0.10;0.10;;;;;;;5.62;66.07;101341.25;5087372;28;20522;-68
2021/10/24 01:27:39;;;;;;;0.10;0.10;;;;;;;5.62;66.00;101343.84;5088128;28;20040;-67
2021/10/24 01:30:08;;;;;;;0.00;0.00;;;;;;;5.59;66.01;101347.44;5087755;28;20070;-68
2021/10/24 01:32:35;;;;;;;0.00;0.00;;;;;;;5.58;66.19;101344.88;5086855;28;20055;-68
2021/10/24 01:35:02;;;;;;;0.08;0.08;;;;;;;5.58;65.99;101340.50;5093045;28;20051;-66
2021/10/24 01:37:33;;;;;;;0.00;0.00;;;;;;;5.54;66.05;101334.50;5088201;28;20048;-67
2021/10/24 01:40:07;;;;;;;0.10;0.10;;;;;;;5.54;66.11;101344.97;5087525;28;20629;-67
2021/10/24 01:42:34;;;;;;;0.00;0.00;;;;;;;5.53;66.06;101340.66;5087890;28;20040;-67
2021/10/24 01:45:08;;;;;;;0.00;0.00;;;;;;;5.50;66.17;101340.75;5086021;28;20166;-67
2021/10/24 01:47:36;;;;;;;0.10;0.10;;;;;;;5.49;65.94;101341.69;5086955;28;20054;-68
2021/10/24 01:50:04;;;;;;;0.10;0.10;;;;;;;5.47;66.05;101348.72;5087474;28;20520;-67
2021/10/24 01:52:32;;;;;;;0.00;0.00;;;;;;;5.46;66.15;101351.41;5087574;28;20048;-67
2021/10/24 01:54:58;;;;;;;0.10;0.10;;;;;;;5.44;66.20;101351.47;5088103;28;20040;-67
2021/10/24 01:57:27;;;;;;;0.10;0.10;;;;;;;5.44;66.08;101353.19;5087638;28;20090;-68
2021/10/24 01:59:54;;;;;;;0.00;0.00;;;;;;;5.43;66.11;101356.75;5087128;28;20040;-67
2021/10/24 02:02:23;;;;;;;0.10;0.10;;;;;;;5.44;66.31;101364.56;5087823;28;20055;-68
2021/10/24 02:04:50;;;;;;;0.10;0.10;;;;;;;5.46;66.27;101354.88;5088321;28;20488;-70
2021/10/24 02:07:18;;;;;;;0.03;0.03;;;;;;;5.44;66.27;101350.56;5087774;28;20047;-69
2021/10/24 02:09:45;;;;;;;0.10;0.10;;;;;;;5.45;66.25;101350.53;5088426;28;20048;-68
2021/10/24 02:12:12;;;;;;;0.10;0.10;;;;;;;5.46;66.06;101356.66;5088377;28;20055;-70
2021/10/24 02:14:40;;;;;;;0.10;0.10;;;;;;;5.46;66.24;101352.25;5087242;28;20495;-69
2021/10/24 02:17:07;;;;;;;0.43;0.43;;;;;;;5.44;66.11;101348.84;5088636;28;20040;-68
2021/10/24 02:19:34;;;;;;;0.00;0.00;;;;;;;5.47;66.26;101367.06;5088633;28;20566;-67
2021/10/24 02:22:03;;;;;;;0.10;0.10;;;;;;;5.49;66.26;101356.53;5069319;28;20074;-67
2021/10/24 02:24:30;;;;;;;0.10;0.10;;;;;;;5.55;66.22;101351.09;5086880;28;20089;-68
2021/10/24 02:26:57;;;;;;;0.10;0.10;;;;;;;5.61;66.06;101343.00;5087221;28;20052;-68
2021/10/24 02:29:24;;;;;;;0.00;0.00;;;;;;;5.65;65.91;101346.38;5085914;28;20044;-67
2021/10/24 02:31:52;;;;;;;0.00;0.00;;;;;;;5.70;65.90;101344.47;5086300;28;20047;-68
2021/10/24 02:34:19;;;;;;;0.00;0.00;;;;;;;5.80;65.81;101355.47;5086537;28;20048;-68
2021/10/24 02:36:46;;;;;;;0.17;0.17;;;;;;;5.85;65.70;101362.28;5086216;28;20048;-68
2021/10/24 02:39:13;;;;;;;0.00;0.00;;;;;;;5.94;65.69;101361.97;5085886;28;20384;-68
2021/10/24 02:41:39;;;;;;;0.00;0.00;;;;;;;6.02;65.63;101368.75;5086850;28;20488;-67
2021/10/24 02:44:06;;;;;;;0.10;0.10;;;;;;;6.10;65.62;101370.19;5084997;28;20074;-68
2021/10/24 02:46:33;;;;;;;0.10;0.10;;;;;;;6.17;65.49;101386.53;5086439;28;20051;-69
2021/10/24 02:49:01;;;;;;;0.00;0.00;;;;;;;6.22;65.61;101383.75;5086473;28;20040;-69
2021/10/24 02:51:28;;;;;;;0.10;0.10;;;;;;;6.27;65.43;101376.59;5085650;28;20053;-68
2021/10/24 02:53:55;;;;;;;0.65;0.65;;;;;;;6.34;65.62;101377.19;5086391;28;20058;-69
2021/10/24 02:56:22;;;;;;;0.10;0.10;;;;;;;6.41;65.45;101376.94;5086175;28;20048;-68
2021/10/24 02:58:49;;;;;;;0.05;0.05;;;;;;;6.45;65.40;101385.53;5086847;28;20056;-68
2021/10/24 03:01:17;;;;;;;0.00;0.00;;;;;;;6.48;65.52;101390.66;5087284;28;20047;-68
2021/10/24 03:03:44;;;;;;;0.00;0.00;;;;;;;6.51;65.49;101393.19;5085538;28;20052;-67
2021/10/24 03:06:12;;;;;;;0.00;0.00;;;;;;;6.50;65.68;101399.34;5085381;28;20188;-69
2021/10/24 03:08:39;;;;;;;0.10;0.10;;;;;;;6.49;65.91;101400.25;5086684;28;20059;-67
2021/10/24 03:11:06;;;;;;;0.00;0.00;;;;;;;6.53;65.96;101406.25;5087182;28;20044;-68
2021/10/24 03:13:32;;;;;;;0.00;0.00;;;;;;;6.59;65.86;101404.25;5085934;28;20055;-69
2021/10/24 03:15:59;;;;;;;0.47;0.47;;;;;;;6.61;65.80;101412.94;5088727;28;20059;-67
2021/10/24 03:18:26;;;;;;;0.13;0.13;;;;;;;6.62;65.87;101419.88;5088218;28;20083;-68
2021/10/24 03:20:53;;;;;;;0.00;0.00;;;;;;;6.64;65.74;101428.53;5086000;28;20052;-69
2021/10/24 03:23:21;;;;;;;0.10;0.10;;;;;;;6.64;65.94;101423.28;5086561;28;20054;-66
2021/10/24 03:25:49;;;;;;;0.10;0.10;;;;;;;6.63;65.76;101421.59;5086063;28;20066;-68
2021/10/24 03:28:16;;;;;;;0.65;0.65;;;;;;;6.62;65.93;101419.88;5085772;28;20048;-68
2021/10/24 03:30:43;;;;;;;0.10;0.10;;;;;;;6.62;66.00;101414.63;5086085;28;20531;-67
2021/10/24 03:33:10;;;;;;;0.10;0.10;;;;;;;6.66;65.96;101421.50;5086253;28;20051;-69
2021/10/24 03:35:38;;;;;;;0.10;0.10;;;;;;;6.68;65.84;101427.53;5085356;28;20044;-68
2021/10/24 03:38:05;;;;;;;0.10;0.10;;;;;;;6.71;65.80;101423.94;5086767;28;20052;-70
2021/10/24 03:40:33;;;;;;;0.10;0.10;;;;;;;6.72;65.81;101423.03;5086802;28;20055;-68
2021/10/24 03:43:00;;;;;;;0.10;0.10;;;;;;;6.71;65.82;101429.19;5085535;28;20036;-69
2021/10/24 03:45:27;;;;;;;0.10;0.10;;;;;;;6.73;65.90;101439.63;5083646;28;20040;-70
2021/10/24 03:47:53;;;;;;;0.10;0.10;;;;;;;6.72;65.84;101441.41;5085245;28;20048;-69
2021/10/24 03:50:20;;;;;;;0.30;0.30;;;;;;;6.70;65.95;101446.72;5087873;28;20048;-68
2021/10/24 03:52:47;;;;;;;2.03;1.77;;;;;;;6.71;66.04;101444.94;5089517;28;20059;-68
2021/10/24 03:55:15;;;;;;;0.30;0.30;;;;;;;6.71;66.06;101447.56;5089513;28;20746;-66
2021/10/24 03:57:44;;;;;;;0.10;0.10;;;;;;;6.70;66.04;101446.72;5089367;28;20044;-67
2021/10/24 04:00:13;;;;;;;0.20;0.20;;;;;;;6.71;66.16;101450.19;5088997;28;20112;-69
2021/10/24 04:02:52;;;;;;;0.40;0.40;;;;;;;6.77;66.07;101446.47;5089107;28;20047;-68
2021/10/24 04:05:19;;;;;;;0.10;0.10;;;;;;;6.77;65.94;101457.84;5089863;28;20048;-66
2021/10/24 04:07:47;;;;;;;0.10;0.10;;;;;;;6.76;65.93;101458.75;5089237;28;20044;-67
2021/10/24 04:10:14;;;;;;;0.15;0.15;;;;;;;6.77;66.00;101457.84;5088181;28;20135;-68
2021/10/24 04:12:43;;;;;;;0.10;0.10;;;;;;;6.74;65.99;101462.34;5089049;28;20052;-68
2021/10/24 04:15:10;;;;;;;0.45;0.45;;;;;;;6.60;66.26;101462.84;5088135;28;20044;-68
2021/10/24 04:17:38;;;;;;;0.10;0.10;;;;;;;6.50;66.42;101454.47;5088836;28;20048;-67
2021/10/24 04:20:07;;;;;;;0.00;0.00;;;;;;;6.43;66.54;101455.59;5089003;28;20119;-69
2021/10/24 04:22:34;;;;;;;0.32;0.32;;;;;;;6.32;66.81;101454.22;5088910;28;20047;-68
2021/10/24 04:25:01;;;;;;;0.10;0.10;;;;;;;6.27;66.91;101450.88;5087492;28;20055;-69
2021/10/24 04:27:28;;;;;;;0.10;0.10;;;;;;;6.28;66.84;101452.63;5089112;28;20408;-67
2021/10/24 04:29:56;;;;;;;2.15;2.05;;;;;;;6.28;66.88;101442.13;5089068;28;20048;-68
2021/10/24 04:32:23;;;;;;;0.00;0.00;;;;;;;6.28;66.80;101450.00;5088190;28;20044;-68
2021/10/24 04:34:50;;;;;;;0.00;0.00;;;;;;;6.25;66.58;101450.09;5089298;28;20044;-68
2021/10/24 04:37:17;;;;;;;0.10;0.10;;;;;;;6.20;66.72;101449.41;5091966;28;20047;-67
2021/10/24 04:39:44;;;;;;;0.00;0.00;;;;;;;6.17;66.88;101454.75;5093420;28;20050;-67
2021/10/24 04:42:11;;;;;;;1.45;1.38;;;;;;;6.17;66.84;101453.88;5091390;28;20055;-68
2021/10/24 04:44:38;;;;;;;0.10;0.10;;;;;;;6.21;66.88;101452.88;5091380;28;20123;-66
2021/10/24 04:47:07;;;;;;;0.00;0.00;;;;;;;6.27;66.56;101471.03;5091009;28;20044;-68
2021/10/24 04:49:34;;;;;;;0.00;0.00;;;;;;;6.24;66.49;101461.47;5092655;28;20055;-67
2021/10/24 04:52:01;;;;;;;0.10;0.10;;;;;;;6.27;66.52;101465.78;5093035;28;20048;-67
2021/10/24 04:54:28;;;;;;;0.10;0.10;;;;;;;6.28;66.36;101472.72;5093772;28;20051;-68
2021/10/24 04:56:55;;;;;;;0.45;0.45;;;;;;;6.28;66.33;101464.84;5091814;28;20051;-67
2021/10/24 04:59:23;;;;;;;0.00;0.00;;;;;;;6.20;66.29;101466.91;5091939;28;20680;-68
2021/10/24 05:01:50;;;;;;;0.10;0.10;;;;;;;6.12;66.48;101472.41;5089577;28;20055;-68
2021/10/24 05:04:18;;;;;;;1.10;1.05;;;;;;;6.07;66.58;101475.19;5090806;28;20066;-68
2021/10/24 05:06:45;;;;;;;0.10;0.10;;;;;;;6.03;66.57;101483.22;5090813;28;20069;-67
2021/10/24 05:09:12;;;;;;;0.00;0.00;;;;;;;5.98;66.63;101483.38;5093669;28;20058;-68
2021/10/24 05:11:39;;;;;;;0.00;0.00;;;;;;;5.94;66.74;101484.34;5093532;28;20050;-68
2021/10/24 05:14:07;;;;;;;0.73;0.73;;;;;;;5.92;66.65;101486.16;5090868;28;20858;-68
2021/10/24 05:16:34;;;;;;;0.65;0.65;;;;;;;5.90;66.68;101487.97;5092618;28;20086;-70
2021/10/24 05:19:01;;;;;;;0.00;0.00;;;;;;;5.89;66.61;101486.28;5095399;28;20044;-69
2021/10/24 05:21:29;;;;;;;0.00;0.00;;;;;;;5.86;66.71;101484.59;5092487;28;20044;-66
2021/10/24 05:23:56;;;;;;;0.00;0.00;;;;;;;5.85;66.56;101482.91;5092103;28;20089;-68
2021/10/24 05:26:23;;;;;;;0.10;0.10;;;;;;;5.83;66.66;101495.19;5090175;28;20415;-67
2021/10/24 05:28:50;;;;;;;0.05;0.05;;;;;;;5.82;66.63;101490.00;5093147;28;20044;-66
2021/10/24 05:31:17;;;;;;;0.00;0.00;;;;;;;5.80;66.68;101491.81;5092703;28;20052;-66
2021/10/24 05:33:44;;;;;;;0.00;0.00;;;;;;;5.77;66.65;101487.53;5096876;28;20048;-68
2021/10/24 05:36:11;;;;;;;0.10;0.10;;;;;;;5.80;66.64;101491.81;5091084;28;20055;-69
2021/10/24 05:38:40;;;;;;;0.10;0.10;;;;;;;5.81;66.58;101490.91;5091793;28;20059;-68
2021/10/24 05:41:07;;;;;;;0.00;0.00;;;;;;;5.80;66.68;101495.31;5091603;28;20127;-67
2021/10/24 05:43:34;;;;;;;0.10;0.10;;;;;;;5.80;66.75;101503.16;5090677;28;20048;-68
2021/10/24 05:46:00;;;;;;;0.10;0.10;;;;;;;5.82;66.57;101498.72;5092075;28;20051;-68
2021/10/24 05:48:28;;;;;;;0.00;0.00;;;;;;;5.85;66.51;101505.63;5096112;28;20055;-67
2021/10/24 05:50:55;;;;;;;0.10;0.10;;;;;;;5.85;66.55;101514.38;5094188;28;20050;-70
2021/10/24 05:53:22;;;;;;;0.10;0.10;;;;;;;5.86;66.51;101518.69;5092904;28;20048;-68
2021/10/24 05:55:51;;;;;;;0.30;0.30;;;;;;;5.89;66.55;101513.34;5092183;28;20052;-67
2021/10/24 05:58:18;;;;;;;0.00;0.00;;;;;;;5.91;66.42;101511.53;5097182;28;20051;-69
2021/10/24 06:00:45;;;;;;;0.10;0.10;;;;;;;5.96;66.38;101518.41;5089246;28;20245;-70
2021/10/24 06:03:13;;;;;;;0.10;0.10;;;;;;;5.99;66.34;101516.53;5084923;28;20048;-69
2021/10/24 06:05:41;;;;;;;1.38;1.27;;;;;;;6.05;66.28;101515.47;5083995;28;20044;-68
2021/10/24 06:08:17;;;;;;;0.00;0.00;;;;;;;6.11;66.39;101525.78;5066455;28;20441;-69
2021/10/24 06:10:44;;;;;;;0.10;0.10;;;;;;;6.24;66.09;101527.06;5086747;28;20072;-71
2021/10/24 06:13:12;;;;;;;0.00;0.00;;;;;;;6.35;66.09;101529.34;5085520;28;20052;-74
2021/10/24 06:15:39;;;;;;;0.00;0.00;;;;;;;6.44;65.92;101530.78;5084962;28;20044;-69
2021/10/24 06:18:07;;;;;;;0.00;0.00;;;;;;;6.45;65.95;101532.50;5088951;28;20051;-70
2021/10/24 06:20:34;;;;;;;0.10;0.10;;;;;;;6.47;66.03;101535.94;5089377;28;20180;-71
2021/10/24 06:23:01;;;;;;;0.57;0.57;;;;;;;6.49;65.93;101539.38;5094273;28;20562;-71
2021/10/24 06:25:28;;;;;;;0.00;0.00;;;;;;;6.49;66.08;101549.84;5093703;28;20043;-68
2021/10/24 06:27:55;;;;;;;0.10;0.10;;;;;;;6.47;66.08;101543.81;5088532;28;20062;-67
2021/10/24 06:30:24;;;;;;;0.00;0.00;;;;;;;6.48;66.29;101554.25;5087669;28;20142;-70
2021/10/24 06:32:52;;;;;;;0.05;0.05;;;;;;;6.58;66.39;101554.78;5096647;28;20040;-71
2021/10/24 06:35:21;;;;;;;0.00;0.00;;;;;;;6.73;66.09;101553.38;5092167;28;20113;-70
2021/10/24 06:37:48;;;;;;;0.10;0.10;;;;;;;6.86;65.99;101554.66;5089161;28;20046;-72
2021/10/24 06:40:18;;;;;;;0.10;0.10;;;;;;;7.01;65.83;101560.28;5087282;28;20048;-71
2021/10/24 06:42:45;;;;;;;9.98;3.03;;;;;;;7.13;65.75;101569.47;5089110;28;20550;-70
2021/10/24 06:45:12;;;;;;;0.00;0.00;;;;;;;7.23;65.67;101568.22;5092727;28;20047;-73
2021/10/24 06:47:42;;;;;;;0.65;0.65;;;;;;;7.35;65.75;101578.28;5092337;28;20044;-71
2021/10/24 06:50:11;;;;;;;0.10;0.10;;;;;;;7.40;65.58;101583.34;5092511;28;20044;-70
2021/10/24 06:52:39;;;;;;;0.10;0.10;;;;;;;7.33;65.70;101582.75;5069740;28;20056;-71
2021/10/24 06:55:08;;;;;;;0.10;0.10;;;;;;;7.31;65.81;101586.31;5075823;28;20052;-70
2021/10/24 06:57:48;;;;;;;0.17;0.17;;;;;;;7.26;66.07;101584.72;5092411;28;20054;-71
2021/10/24 07:00:19;;;;;;;0.10;0.10;;;;;;;7.21;66.06;101585.81;5095916;28;20048;-71
2021/10/24 07:02:47;;;;;;;0.40;0.40;;;;;;;7.15;66.24;101591.28;5092086;28;20055;-70
2021/10/24 07:05:14;;;;;;;0.40;0.40;;;;;;;7.10;66.30;101595.88;5092934;28;20048;-73
2021/10/24 07:07:42;;;;;;;0.10;0.10;;;;;;;7.05;66.27;101596.03;5092714;28;20056;-73
2021/10/24 07:10:11;;;;;;;0.10;0.10;;;;;;;7.02;66.42;101597.00;5091888;28;20044;-72
2021/10/24 07:12:38;;;;;;;0.30;0.30;;;;;;;7.01;66.31;101605.78;5093347;28;20515;-73
2021/10/24 07:15:06;;;;;;;0.57;0.57;;;;;;;7.00;66.47;101604.06;5100353;28;20048;-73
2021/10/24 07:17:33;;;;;;;0.00;0.00;;;;;;;7.01;66.69;101605.78;5093865;28;20048;-71
2021/10/24 07:20:03;;;;;;;1.30;1.30;;;;;;;7.10;66.67;101619.53;5091664;28;20048;-70
2021/10/24 07:22:30;;;;;;;4.80;1.65;;;;;;;7.22;66.51;101611.16;5090303;28;20123;-73
2021/10/24 07:24:58;;;;;;;1.13;1.13;;;;;;;7.35;66.48;101611.59;5095082;28;20036;-71
2021/10/24 07:27:25;;;;;;;1.55;1.45;;;;;;;7.44;66.39;101614.72;5092928;28;20055;-70
2021/10/24 07:29:52;;;;;;;0.32;0.32;;;;;;;7.50;66.31;101618.03;5094237;28;20073;-74
2021/10/24 07:32:20;;;;;;;0.80;0.80;;;;;;;7.54;66.22;101625.75;5093497;28;20680;-70
2021/10/24 07:34:47;;;;;;;0.05;0.05;;;;;;;7.56;66.28;101620.41;5093321;28;20056;-72
2021/10/24 07:37:15;;;;;;;0.40;0.40;;;;;;;7.64;66.28;101621.84;5092867;28;20048;-72
2021/10/24 07:39:42;;;;;;;0.52;0.52;;;;;;;7.76;66.16;101620.53;5091668;28;20054;-71
2021/10/24 07:42:11;;;;;;;0.47;0.47;;;;;;;7.87;65.94;101635.03;5091929;28;20082;-71
2021/10/24 07:44:38;;;;;;;1.10;1.10;;;;;;;7.89;65.98;101628.81;5094108;28;20046;-72
2021/10/24 07:47:06;;;;;;;0.57;0.57;;;;;;;7.91;66.05;101631.38;5099003;28;20052;-74
2021/10/24 07:49:33;;;;;;;0.40;0.40;;;;;;;7.92;66.05;101627.81;5092948;28;20051;-72
2021/10/24 07:52:01;;;;;;;0.10;0.10;;;;;;;7.91;65.93;101631.38;5096760;28;21017;-74
2021/10/24 07:54:29;;;;;;;0.10;0.10;;;;;;;7.95;66.11;101632.97;5096914;28;20054;-72
2021/10/24 07:56:56;;;;;;;0.10;0.10;;;;;;;8.04;65.82;101627.31;5099759;28;20044;-74
2021/10/24 07:59:23;;;;;;;0.63;0.63;;;;;;;8.08;65.92;101630.69;5096037;28;20044;-74
2021/10/24 08:01:50;;;;;;;0.10;0.10;;;;;;;8.14;65.74;101636.56;5094779;28;20040;-70
2021/10/24 08:04:20;;;;;;;0.82;0.82;;;;;;;8.22;65.90;101637.09;5094779;28;20094;-72
2021/10/24 08:06:47;;;;;;;0.15;0.15;;;;;;;8.30;65.51;101635.94;5090391;28;20083;-74
2021/10/24 08:09:14;;;;;;;0.25;0.25;;;;;;;8.33;65.43;101633.19;5096280;28;20040;-68
2021/10/24 08:11:43;;;;;;;0.10;0.10;;;;;;;8.33;65.51;101633.19;5086832;28;20058;-70
2021/10/24 08:14:12;;;;;;;0.65;0.65;;;;;;;8.37;65.51;101637.41;5087090;28;20504;-76
2021/10/24 08:16:39;;;;;;;2.50;2.35;;;;;;;8.52;65.49;101639.44;5092899;28;20494;-72
2021/10/24 08:19:06;;;;;;;1.00;1.00;;;;;;;8.63;65.17;101648.69;5089176;28;20044;-73
2021/10/24 08:21:33;;;;;;;0.08;0.08;;;;;;;8.70;65.10;101640.44;5088586;28;20104;-72
2021/10/24 08:24:00;;;;;;;0.10;0.10;;;;;;;9.05;65.07;101648.59;5088674;28;20048;-76
2021/10/24 08:26:28;;;;;;;0.10;0.10;;;;;;;9.39;64.39;101647.09;5088576;28;20048;-72
2021/10/24 08:28:56;;;;;;;0.10;0.10;;;;;;;9.74;64.00;101652.53;5089005;28;20059;-70
2021/10/24 08:31:26;;;;;;;0.00;0.00;;;;;;;10.14;63.49;101648.88;5088222;28;20055;-70
2021/10/24 08:33:54;;;;;;;0.10;0.10;;;;;;;10.51;63.08;101646.25;5086116;28;20440;-70
2021/10/24 08:36:23;;;;;;;0.10;0.10;;;;;;;10.93;62.70;101646.78;5093276;28;20047;-71
2021/10/24 08:38:50;;;;;;;0.10;0.10;;;;;;;11.47;62.09;101636.88;5093685;28;20124;-69
2021/10/24 08:41:22;;;;;;;0.00;0.00;;;;;;;11.88;61.45;101651.41;5094653;28;20055;-69
2021/10/24 08:43:50;;;;;;;0.10;0.10;;;;;;;12.12;61.28;101650.06;5103587;28;20044;-69
2021/10/24 08:46:19;;;;;;;0.00;0.00;;;;;;;12.21;61.37;101654.00;5112497;28;20052;-72
2021/10/24 08:48:46;;;;;;;0.10;0.10;;;;;;;12.15;61.60;101655.19;5110590;28;20048;-73
2021/10/24 08:51:13;;;;;;;0.10;0.10;;;;;;;11.93;62.05;101658.19;5102655;28;20054;-72
2021/10/24 08:53:43;;;;;;;1.17;1.17;;;;;;;11.83;62.32;101660.47;5102720;28;20055;-74
2021/10/24 08:56:15;;;;;;;0.10;0.10;;;;;;;11.94;61.96;101653.72;5101873;28;20048;-76
2021/10/24 08:58:42;;;;;;;0.10;0.10;;;;;;;12.05;61.63;101659.31;5101722;28;20105;-73
2021/10/24 09:01:09;;;;;;;0.00;0.00;;;;;;;12.28;61.36;101655.34;5101928;28;20047;-69
2021/10/24 09:03:38;;;;;;;0.00;0.00;;;;;;;12.66;60.81;101649.63;5100343;28;20071;-70
2021/10/24 09:06:06;;;;;;;0.32;0.32;;;;;;;12.80;60.71;101660.25;5099232;28;20583;-71
2021/10/24 09:08:36;;;;;;;0.10;0.10;;;;;;;12.76;60.69;101658.72;5102677;28;20119;-72
2021/10/24 09:11:03;;;;;;;0.10;0.10;;;;;;;12.56;61.24;101659.03;5101381;28;20062;-70
2021/10/24 09:13:32;;;;;;;1.25;0.65;;;;;;;12.38;61.36;101663.63;5100345;28;20062;-72
2021/10/24 09:16:01;;;;;;;0.40;0.40;;;;;;;12.18;61.60;101662.97;5099282;28;20577;-72
2021/10/24 09:18:32;;;;;;;0.40;0.40;;;;;;;12.10;61.78;101662.56;5100642;28;20040;-70
2021/10/24 09:21:19;;;;;;;7.22;1.17;;;;;;;12.40;61.61;101670.53;5099442;28;20051;-73
2021/10/24 09:23:47;;;;;;;0.57;0.57;;;;;;;12.51;61.21;101663.75;5100230;28;20052;-71
2021/10/24 09:26:21;;;;;;;0.10;0.10;;;;;;;12.56;61.19;101669.66;5098818;28;20487;-71
2021/10/24 09:28:59;;;;;;;0.00;0.00;;;;;;;12.84;60.86;101670.66;5102327;28;20169;-69
2021/10/24 09:31:28;;;;;;;0.10;0.10;;;;;;;13.23;60.44;101664.75;5099952;28;20054;-71
2021/10/24 09:34:10;;;;;;;0.10;0.10;;;;;;;13.74;59.31;101665.16;5100061;28;20054;-74
2021/10/24 09:36:53;;;;;;;0.32;0.32;;;;;;;13.39;60.03;101676.16;5099779;28;20043;-73
2021/10/24 09:39:25;;;;;;;0.65;0.65;;;;;;;12.81;61.23;101669.06;5101404;28;20105;-71
2021/10/24 09:42:17;;;;;;;0.17;0.17;;;;;;;12.46;61.84;101671.13;5100917;28;20047;-71
2021/10/24 09:45:05;;;;;;;0.03;0.03;;;;;;;12.27;62.48;101679.28;5097307;28;20134;-70
2021/10/24 09:47:33;;;;;;;0.30;0.30;;;;;;;12.18;62.37;101683.28;5100847;28;20062;-72
2021/10/24 09:50:00;;;;;;;0.20;0.20;;;;;;;12.12;62.51;101683.63;5101294;28;20052;-73
2021/10/24 09:52:30;;;;;;;0.20;0.20;;;;;;;12.11;62.55;101684.59;5102230;28;20052;-73
2021/10/24 09:54:57;;;;;;;1.67;1.60;;;;;;;12.05;62.20;101685.78;5103664;28;20735;-70
2021/10/24 09:57:24;;;;;;;2.17;2.05;;;;;;;12.14;62.03;101687.06;5101527;28;20044;-71
2021/10/24 09:59:53;;;;;;;0.10;0.10;;;;;;;12.17;61.73;101686.88;5102192;28;20122;-75
2021/10/24 10:02:23;;;;;;;0.10;0.10;;;;;;;12.12;61.68;101679.22;5106691;28;20134;-74
2021/10/24 10:04:49;;;;;;;0.00;0.00;;;;;;;12.27;61.44;101680.13;5105135;28;20048;-75
2021/10/24 10:07:17;;;;;;;0.00;0.00;;;;;;;12.45;61.49;101674.72;5084262;28;20261;-75
2021/10/24 10:09:46;;;;;;;0.32;0.32;;;;;;;12.72;61.14;101678.41;5088395;28;20696;-75
2021/10/24 10:12:20;;;;;;;0.00;0.00;;;;;;;13.14;60.34;101676.81;5083778;28;20048;-71
2021/10/24 10:14:49;;;;;;;0.00;0.00;;;;;;;13.17;60.31;101673.94;5077435;28;20148;-69
2021/10/24 10:17:23;;;;;;;0.00;0.00;;;;;;;13.43;60.39;101676.81;5079676;28;20113;-71
2021/10/24 10:19:51;;;;;;;0.10;0.10;;;;;;;13.38;60.21;101676.28;5078856;28;20054;-71
2021/10/24 10:22:31;;;;;;;1.77;0.55;;;;;;;13.20;60.88;101680.88;5078318;28;20693;-73
2021/10/24 10:25:02;;;;;;;0.25;0.25;;;;;;;13.38;60.70;101678.94;5078556;28;20073;-71
2021/10/24 10:27:45;;;;;;;0.00;0.00;;;;;;;13.46;60.85;101681.97;5080479;28;20048;-76
2021/10/24 10:30:14;;;;;;;0.10;0.10;;;;;;;13.39;60.70;101685.94;5081543;28;20106;-74
2021/10/24 10:32:43;;;;;;;0.20;0.20;;;;;;;13.45;60.73;101680.25;5078834;28;20052;-72
2021/10/24 10:35:12;;;;;;;0.00;0.00;;;;;;;13.96;60.08;101685.88;5079139;28;20052;-74
2021/10/24 10:37:51;;;;;;;1.02;0.68;;;;;;;14.14;59.61;101677.69;5081831;28;20333;-74
2021/10/24 10:40:21;;;;;;;0.75;0.52;;;;;;;14.25;59.50;101672.53;5081042;28;20138;-73
2021/10/24 10:43:01;;;;;;;0.55;0.55;;;;;;;14.08;60.08;101672.75;5079233;28;20082;-80
2021/10/24 10:45:43;;;;;;;0.10;0.10;;;;;;;13.87;60.66;101675.84;5079745;28;20051;-76
2021/10/24 10:48:43;;;;;;;0.55;0.55;;;;;;;13.78;60.97;101668.47;5082455;28;20047;-74
2021/10/24 10:51:19;;;;;;;0.10;0.10;;;;;;;13.79;60.85;101669.31;5072816;28;20240;-77
2021/10/24 10:54:03;;;;;;;0.00;0.00;;;;;;;13.76;61.17;101668.56;5081654;28;20044;-75
2021/10/24 10:56:47;;;;;;;0.00;0.00;;;;;;;13.99;60.96;101668.03;5082012;28;20059;-77
2021/10/24 10:59:29;;;;;;;0.00;0.00;;;;;;;14.14;60.71;101672.38;5081822;28;20075;-77
2021/10/24 11:01:56;;;;;;;0.00;0.00;;;;;;;14.37;60.34;101668.22;5080351;28;20043;-78
2021/10/24 11:04:23;;;;;;;0.10;0.10;;;;;;;14.69;59.83;101670.56;5081869;28;20565;-77
2021/10/24 11:06:59;;;;;;;0.00;0.00;;;;;;;14.95;59.60;101663.47;5080945;28;20059;-76
2021/10/24 11:09:53;;;;;;;0.00;0.00;;;;;;;15.45;59.09;101661.78;5082011;28;20044;-75
2021/10/24 11:12:42;;;;;;;0.00;0.00;;;;;;;15.54;58.93;101662.06;4993906;28;20417;-73
2021/10/24 11:15:18;;;;;;;0.00;0.00;;;;;;;15.55;59.15;101667.28;4986011;28;20072;-73
2021/10/24 11:17:47;;;;;;;0.00;0.00;;;;;;;15.54;59.48;101662.94;4985897;28;20096;-73
2021/10/24 11:20:23;;;;;;;0.00;0.00;;;;;;;15.47;59.57;101659.84;4981781;28;20161;-74
2021/10/24 11:22:55;;;;;;;0.00;0.00;;;;;;;15.33;60.05;101662.63;4984497;28;20667;-71
2021/10/24 11:25:32;;;;;;;0.47;0.47;;;;;;;15.36;60.10;101659.75;4981215;28;20042;-73
2021/10/24 11:28:10;;;;;;;0.00;0.00;;;;;;;15.55;59.82;101661.13;4986799;28;20061;-72
2021/10/24 11:30:38;;;;;;;0.00;0.00;;;;;;;15.73;59.47;101657.13;4980944;28;20058;-71
2021/10/24 11:33:06;;;;;;;0.03;0.03;;;;;;;15.74;58.82;101658.00;4971863;28;20505;-72
2021/10/24 11:35:35;;;;;;;0.00;0.00;;;;;;;15.63;59.25;101658.78;4975610;28;20754;-70
2021/10/24 11:38:07;;;;;;;0.30;0.30;;;;;;;15.70;59.00;101659.16;4974390;28;20051;-72
2021/10/24 11:40:36;;;;;;;0.22;0.22;;;;;;;15.66;59.25;101663.84;4979794;28;20061;-70